createdAt,value
2022-12-15T00:02:19.471Z,5.72
2022-12-15T00:05:05.074Z,6.18
2022-12-15T00:07:51.238Z,4.38
2022-12-15T00:10:39.338Z,7.00
2022-12-15T00:13:31.700Z,7.87
2022-12-15T00:16:17.222Z,6.60
2022-12-15T00:19:02.811Z,5.85
2022-12-15T00:21:47.809Z,7.47
2022-12-15T00:24:32.856Z,11.23
2022-12-15T00:27:18.102Z,10.23
2022-12-15T00:30:03.077Z,7.18
2022-12-15T00:32:48.261Z,7.43
2022-12-15T00:35:33.358Z,6.53
2022-12-15T00:38:29.043Z,4.32
2022-12-15T00:40:59.854Z,7.00
2022-12-15T00:43:29.117Z,5.85
2022-12-15T00:46:14.721Z,6.13
2022-12-15T00:48:42.129Z,6.55
2022-12-15T00:51:08.668Z,9.40
2022-12-15T00:53:54.052Z,7.23
2022-12-15T00:56:39.405Z,7.40
2022-12-15T00:59:24.567Z,4.32
2022-12-15T01:02:09.972Z,6.03
2022-12-15T01:04:54.843Z,6.78
2022-12-15T01:07:39.751Z,6.17
2022-12-15T01:10:25.471Z,6.13
2022-12-15T01:13:10.653Z,6.65
2022-12-15T01:15:56.359Z,3.25
2022-12-15T01:18:42.530Z,9.82
2022-12-15T01:21:10.295Z,5.40
2022-12-15T01:23:38.368Z,7.43
2022-12-15T01:26:06.905Z,6.53
2022-12-15T01:28:33.648Z,6.63
2022-12-15T01:31:00.645Z,6.35
2022-12-15T01:33:27.477Z,5.63
2022-12-15T01:36:01.504Z,5.22
2022-12-15T01:38:29.278Z,5.45
2022-12-15T01:41:00.746Z,6.20
2022-12-15T01:43:32.895Z,6.47
2022-12-15T01:46:04.469Z,5.97
2022-12-15T01:48:31.027Z,7.07
2022-12-15T01:51:10.283Z,6.45
2022-12-15T01:53:45.881Z,7.13
2022-12-15T01:56:16.972Z,6.45
2022-12-15T01:58:46.349Z,6.33
2022-12-15T02:01:13.136Z,6.05
2022-12-15T02:03:41.290Z,3.97
2022-12-15T02:06:09.354Z,6.47
2022-12-15T02:08:36.989Z,7.10
2022-12-15T02:11:12.539Z,4.53
2022-12-15T02:13:56.580Z,6.75
2022-12-15T02:16:26.034Z,7.45
2022-12-15T02:18:52.585Z,6.20
2022-12-15T02:21:40.944Z,7.10
2022-12-15T02:24:32.976Z,6.50
2022-12-15T02:27:21.076Z,6.05
2022-12-15T02:30:17.356Z,4.57
2022-12-15T02:33:12.209Z,8.73
2022-12-15T02:35:53.724Z,7.18
2022-12-15T02:38:32.447Z,6.37
2022-12-15T02:41:00.823Z,5.50
2022-12-15T02:43:30.269Z,6.93
2022-12-15T02:46:07.157Z,7.63
2022-12-15T02:48:56.961Z,6.55
2022-12-15T02:51:40.613Z,6.53
2022-12-15T02:54:22.159Z,6.20
2022-12-15T02:57:27.367Z,5.78
2022-12-15T03:00:02.059Z,6.55
2022-12-15T03:02:32.638Z,6.80
2022-12-15T03:04:59.657Z,6.63
2022-12-15T03:07:28.095Z,7.18
2022-12-15T03:09:57.605Z,7.43
2022-12-15T03:12:24.281Z,7.40
2022-12-15T03:14:51.301Z,6.85
2022-12-15T03:17:18.122Z,6.27
2022-12-15T03:19:44.676Z,6.80
2022-12-15T03:22:11.562Z,6.53
2022-12-15T03:24:38.041Z,5.20
2022-12-15T03:27:05.422Z,4.97
2022-12-15T03:29:31.993Z,4.27
2022-12-15T03:31:58.755Z,2.65
2022-12-15T03:34:26.042Z,6.60
2022-12-15T03:36:52.595Z,6.03
2022-12-15T03:39:19.191Z,6.32
2022-12-15T03:41:45.725Z,6.17
2022-12-15T03:44:16.521Z,4.93
2022-12-15T03:46:43.172Z,5.10
2022-12-15T03:49:09.764Z,6.00
2022-12-15T03:51:36.288Z,7.18
2022-12-15T03:54:02.793Z,5.03
2022-12-15T03:56:29.335Z,6.38
2022-12-15T03:58:56.059Z,6.90
2022-12-15T04:01:30.273Z,6.78
2022-12-15T04:04:00.915Z,6.63
2022-12-15T04:06:29.366Z,7.80
2022-12-15T04:08:55.915Z,6.43
2022-12-15T04:11:22.557Z,6.82
2022-12-15T04:13:49.223Z,5.30
2022-12-15T04:16:19.784Z,6.13
2022-12-15T04:18:47.271Z,5.37
2022-12-15T04:21:13.711Z,5.43
2022-12-15T04:23:58.603Z,5.32
2022-12-15T04:26:43.737Z,5.88
2022-12-15T04:29:29.139Z,5.93
2022-12-15T04:32:14.204Z,4.47
2022-12-15T04:34:59.453Z,8.82
2022-12-15T04:37:44.428Z,7.45
2022-12-15T04:40:29.727Z,8.93
2022-12-15T04:43:14.943Z,5.15
2022-12-15T04:46:00.076Z,3.63
2022-12-15T04:48:45.279Z,4.35
2022-12-15T04:51:30.213Z,6.32
2022-12-15T04:54:15.150Z,6.40
2022-12-15T04:57:00.206Z,6.43
2022-12-15T04:59:45.354Z,7.37
2022-12-15T05:02:30.814Z,6.25
2022-12-15T05:05:16.031Z,5.90
2022-12-15T05:08:01.281Z,4.95
2022-12-15T05:10:46.159Z,5.82
2022-12-15T05:13:31.879Z,6.47
2022-12-15T05:16:17.468Z,6.10
2022-12-15T05:19:02.562Z,7.18
2022-12-15T05:21:47.660Z,7.10
2022-12-15T05:24:32.734Z,6.53
2022-12-15T05:27:18.227Z,6.23
2022-12-15T05:30:03.249Z,7.05
2022-12-15T05:32:32.630Z,6.03
2022-12-15T05:34:59.116Z,5.25
2022-12-15T05:37:25.663Z,6.32
2022-12-15T05:39:52.171Z,7.50
2022-12-15T05:42:18.747Z,6.70
2022-12-15T05:44:45.310Z,8.55
2022-12-15T05:47:12.594Z,7.97
2022-12-15T05:49:39.255Z,6.50
2022-12-15T05:52:06.504Z,7.20
2022-12-15T05:54:33.053Z,6.80
2022-12-15T05:56:59.678Z,6.47
2022-12-15T05:59:26.460Z,7.57
2022-12-15T06:01:53.193Z,4.03
2022-12-15T06:04:19.756Z,3.87
2022-12-15T06:06:46.458Z,6.60
2022-12-15T06:09:13.145Z,5.22
2022-12-15T06:11:39.676Z,6.55
2022-12-15T06:14:06.478Z,7.03
2022-12-15T06:16:33.533Z,7.37
2022-12-15T06:19:02.123Z,6.63
2022-12-15T06:21:37.786Z,7.88
2022-12-15T06:24:05.782Z,5.72
2022-12-15T06:26:38.411Z,6.78
2022-12-15T06:29:07.656Z,8.93
2022-12-15T06:31:35.480Z,8.95
2022-12-15T06:34:06.652Z,7.03
2022-12-15T06:36:35.873Z,7.38
2022-12-15T06:39:05.012Z,8.20
2022-12-15T06:41:32.725Z,5.30
2022-12-15T06:44:00.380Z,6.68
2022-12-15T06:46:29.000Z,6.95
2022-12-15T06:48:55.844Z,7.28
2022-12-15T06:51:23.002Z,5.85
2022-12-15T06:53:50.844Z,8.40
2022-12-15T06:56:21.828Z,6.43
2022-12-15T06:58:52.692Z,7.93
2022-12-15T07:01:20.830Z,7.50
2022-12-15T07:03:49.176Z,6.95
2022-12-15T07:06:16.852Z,6.17
2022-12-15T07:08:45.144Z,6.60
2022-12-15T07:11:12.729Z,7.15
2022-12-15T07:13:40.250Z,5.85
2022-12-15T07:16:08.257Z,6.55
2022-12-15T07:18:35.082Z,7.20
2022-12-15T07:21:07.311Z,7.63
2022-12-15T07:23:53.358Z,3.85
2022-12-15T07:26:21.146Z,6.68
2022-12-15T07:28:47.905Z,4.88
2022-12-15T07:31:15.653Z,6.20
2022-12-15T07:33:42.686Z,4.80
2022-12-15T07:36:09.513Z,4.50
2022-12-15T07:38:36.696Z,5.20
2022-12-15T07:41:05.621Z,5.63
2022-12-15T07:43:33.070Z,7.50
2022-12-15T07:46:00.447Z,8.82
2022-12-15T07:48:27.625Z,7.20
2022-12-15T07:51:04.926Z,7.30
2022-12-15T07:53:35.503Z,8.85
2022-12-15T07:56:09.109Z,7.30
2022-12-15T07:58:36.967Z,8.05
2022-12-15T08:01:07.540Z,9.13
2022-12-15T08:03:36.193Z,7.82
2022-12-15T08:06:05.492Z,8.25
2022-12-15T08:08:33.116Z,8.10
2022-12-15T08:11:04.698Z,9.13
2022-12-15T08:14:01.388Z,6.28
2022-12-15T08:16:17.872Z,8.98
2022-12-15T08:18:44.420Z,6.13
2022-12-15T08:21:11.930Z,8.03
2022-12-15T08:23:40.333Z,7.45
2022-12-15T08:26:10.889Z,8.95
2022-12-15T08:28:39.251Z,8.95
2022-12-15T08:31:11.463Z,9.13
2022-12-15T08:33:38.669Z,8.63
2022-12-15T08:36:09.617Z,11.45
2022-12-15T08:38:38.810Z,10.60
2022-12-15T08:41:11.695Z,9.95
2022-12-15T08:43:44.015Z,9.90
2022-12-15T08:46:15.455Z,9.00
2022-12-15T08:48:42.216Z,9.77
2022-12-15T08:51:10.168Z,9.13
2022-12-15T08:53:36.992Z,8.85
2022-12-15T08:56:05.856Z,11.07
2022-12-15T08:58:32.745Z,11.27
2022-12-15T09:01:06.789Z,9.38
2022-12-15T09:03:35.895Z,11.30
2022-12-15T09:06:08.185Z,9.23
2022-12-15T09:08:35.546Z,5.65
2022-12-15T09:11:03.063Z,9.03
2022-12-15T09:13:30.192Z,10.52
2022-12-15T09:16:14.252Z,10.13
2022-12-15T09:18:46.776Z,11.00
2022-12-15T09:21:15.017Z,10.63
2022-12-15T09:23:42.360Z,12.10
2022-12-15T09:26:12.356Z,8.52
2022-12-15T09:28:38.957Z,9.27
2022-12-15T09:31:09.767Z,14.00
2022-12-15T09:33:38.265Z,12.13
2022-12-15T09:36:18.995Z,16.73
2022-12-15T09:38:45.778Z,11.82
2022-12-15T09:41:17.724Z,12.23
2022-12-15T09:43:47.335Z,10.50
2022-12-15T09:46:27.688Z,7.45
2022-12-15T09:48:58.435Z,11.53
2022-12-15T09:51:37.128Z,12.40
2022-12-15T09:54:04.912Z,10.80
2022-12-15T09:56:42.475Z,9.27
2022-12-15T09:59:41.614Z,9.02
2022-12-15T10:02:25.192Z,14.80
2022-12-15T10:05:00.039Z,12.90
2022-12-15T10:07:39.684Z,25.08
2022-12-15T10:10:43.443Z,15.85
2022-12-15T10:13:19.698Z,10.95
2022-12-15T10:15:56.892Z,11.33
2022-12-15T10:18:40.256Z,13.65
2022-12-15T10:21:14.177Z,10.48
2022-12-15T10:23:40.969Z,10.98
2022-12-15T10:26:20.934Z,14.93
2022-12-15T10:29:09.335Z,25.80
2022-12-15T10:32:15.229Z,14.93
2022-12-15T10:34:43.236Z,12.27
2022-12-15T10:37:16.422Z,12.30
2022-12-15T10:39:45.196Z,13.32
2022-12-15T10:42:24.183Z,22.40
2022-12-15T10:45:35.748Z,14.38
2022-12-15T10:48:20.073Z,10.07
2022-12-15T10:50:47.327Z,14.73
2022-12-15T10:53:41.591Z,11.68
2022-12-15T10:56:10.653Z,11.23
2022-12-15T10:58:50.944Z,13.57
2022-12-15T11:01:27.521Z,10.95
2022-12-15T11:03:55.327Z,11.15
2022-12-15T11:06:28.466Z,6.65
2022-12-15T11:09:07.744Z,11.23
2022-12-15T11:12:03.883Z,9.45
2022-12-15T11:14:48.562Z,7.43
2022-12-15T11:17:21.101Z,8.80
2022-12-15T11:20:02.208Z,6.72
2022-12-15T11:22:56.675Z,7.30
2022-12-15T11:25:37.709Z,7.78
2022-12-15T11:28:14.442Z,10.52
2022-12-15T11:31:04.125Z,11.48
2022-12-15T11:33:31.569Z,7.63
2022-12-15T11:36:17.077Z,8.47
2022-12-15T11:38:52.978Z,8.60
2022-12-15T11:41:30.104Z,7.63
2022-12-15T11:44:20.193Z,9.68
2022-12-15T11:47:03.408Z,9.20
2022-12-15T11:49:42.947Z,7.20
2022-12-15T11:52:22.084Z,9.18
2022-12-15T11:54:55.655Z,11.18
2022-12-15T11:57:45.406Z,10.68
2022-12-15T12:00:22.551Z,10.40
2022-12-15T12:02:55.744Z,8.47
2022-12-15T12:05:34.798Z,10.13
2022-12-15T12:08:13.360Z,7.85
2022-12-15T12:10:55.244Z,8.93
2022-12-15T12:13:26.854Z,10.52
2022-12-15T12:16:20.983Z,9.60
2022-12-15T12:19:11.794Z,12.18
2022-12-15T12:21:51.142Z,8.75
2022-12-15T12:24:48.883Z,9.48
2022-12-15T12:27:24.787Z,9.48
2022-12-15T12:29:58.163Z,10.77
2022-12-15T12:32:34.024Z,6.95
2022-12-15T12:35:33.624Z,6.82
2022-12-15T12:41:02.962Z,9.18
2022-12-15T12:43:35.442Z,9.97
2022-12-15T12:46:10.617Z,7.28
2022-12-15T12:48:56.354Z,9.52
2022-12-15T12:51:33.402Z,7.03
2022-12-15T12:54:01.060Z,11.07
2022-12-15T12:56:32.909Z,10.13
2022-12-15T12:58:59.857Z,8.82
2022-12-15T13:01:29.255Z,8.88
2022-12-15T13:04:34.329Z,8.63
2022-12-15T13:07:08.829Z,10.20
2022-12-15T13:09:42.688Z,9.97
2022-12-15T13:12:52.911Z,9.73
2022-12-15T13:15:29.219Z,7.43
2022-12-15T13:18:07.285Z,12.05
2022-12-15T13:20:36.974Z,10.85
2022-12-15T13:23:21.671Z,10.80
2022-12-15T13:25:55.478Z,12.60
2022-12-15T13:28:44.520Z,12.65
2022-12-15T13:31:19.068Z,9.70
2022-12-15T13:33:52.664Z,11.35
2022-12-15T13:36:37.577Z,9.63
2022-12-15T13:39:11.427Z,12.20
2022-12-15T13:42:00.232Z,9.30
2022-12-15T13:44:44.401Z,11.13
2022-12-15T13:47:29.032Z,11.20
2022-12-15T13:50:02.670Z,12.00
2022-12-15T13:55:40.425Z,11.07
2022-12-15T13:58:15.952Z,14.50
2022-12-15T14:00:52.683Z,10.75
2022-12-15T14:03:21.774Z,10.47
2022-12-15T14:05:57.301Z,11.75
2022-12-15T14:08:30.250Z,8.95
2022-12-15T14:11:16.676Z,10.98
2022-12-15T14:13:54.078Z,12.55
2022-12-15T14:16:24.048Z,12.87
2022-12-15T14:19:08.933Z,10.25
2022-12-15T14:21:35.763Z,9.98
2022-12-15T14:24:37.611Z,13.32
2022-12-15T14:27:00.958Z,9.13
2022-12-15T14:29:29.132Z,13.80
2022-12-15T14:31:58.166Z,11.05
2022-12-15T14:34:39.486Z,9.20
2022-12-15T14:37:12.378Z,12.00
2022-12-15T14:39:46.812Z,14.30
2022-12-15T14:42:23.295Z,8.47
2022-12-15T14:44:54.912Z,12.88
2022-12-15T14:47:32.679Z,14.80
2022-12-15T14:50:02.067Z,12.68
2022-12-15T14:52:34.322Z,9.68
2022-12-15T14:55:03.401Z,12.67
2022-12-15T14:57:52.695Z,13.50
2022-12-15T15:00:32.251Z,11.00
2022-12-15T15:03:12.826Z,10.73
2022-12-15T15:06:03.931Z,13.00
2022-12-15T15:08:36.381Z,13.27
2022-12-15T15:11:29.671Z,15.20
2022-12-15T15:14:00.295Z,13.68
2022-12-15T15:16:27.607Z,15.90
2022-12-15T15:18:56.234Z,14.27
2022-12-15T15:21:28.540Z,16.77
2022-12-15T15:24:00.425Z,15.43
2022-12-15T15:26:31.334Z,15.63
2022-12-15T15:29:03.561Z,15.82
2022-12-15T15:31:41.425Z,14.20
2022-12-15T15:34:08.842Z,15.73
2022-12-15T15:36:38.192Z,12.32
2022-12-15T15:39:12.850Z,14.77
2022-12-15T15:41:39.650Z,12.35
2022-12-15T15:44:12.719Z,15.55
2022-12-15T15:46:47.313Z,14.07
2022-12-15T15:49:18.123Z,16.30
2022-12-15T15:51:45.127Z,14.95
2022-12-15T15:54:16.406Z,30.20
2022-12-15T15:56:43.067Z,15.73
2022-12-15T15:59:12.185Z,15.30
2022-12-15T16:01:38.951Z,14.93
2022-12-15T16:04:08.479Z,16.25
2022-12-15T16:06:35.902Z,17.48
2022-12-15T16:09:02.600Z,13.25
2022-12-15T16:11:32.834Z,17.83
2022-12-15T16:14:01.630Z,16.80
2022-12-15T16:16:33.019Z,14.05
2022-12-15T16:18:59.969Z,16.70
2022-12-15T16:21:28.788Z,16.45
2022-12-15T16:23:57.331Z,17.67
2022-12-15T16:26:31.120Z,14.18
2022-12-15T16:28:58.692Z,16.98
2022-12-15T16:31:35.456Z,17.30
2022-12-15T16:34:05.641Z,16.38
2022-12-15T16:36:35.238Z,15.10
2022-12-15T16:39:02.035Z,16.30
2022-12-15T16:41:28.687Z,17.50
2022-12-15T16:43:55.366Z,16.58
2022-12-15T16:46:21.988Z,14.77
2022-12-15T16:48:48.819Z,17.83
2022-12-15T16:51:34.125Z,17.50
2022-12-15T16:54:00.930Z,18.05
2022-12-15T16:56:27.663Z,17.08
2022-12-15T16:59:15.465Z,14.63
2022-12-15T17:01:41.603Z,17.10
2022-12-15T17:04:08.504Z,15.88
2022-12-15T17:06:35.266Z,17.23
2022-12-15T17:09:02.536Z,16.52
2022-12-15T17:11:29.359Z,14.95
2022-12-15T17:13:57.767Z,18.07
2022-12-15T17:16:26.346Z,17.55
2022-12-15T17:18:53.574Z,11.93
2022-12-15T17:21:26.618Z,12.88
2022-12-15T17:23:57.749Z,11.75
2022-12-15T17:26:29.678Z,12.60
2022-12-15T17:29:00.448Z,15.23
2022-12-15T17:31:34.444Z,16.38
2022-12-15T17:34:22.848Z,14.50
2022-12-15T17:36:49.545Z,15.65
2022-12-15T17:39:20.779Z,16.77
2022-12-15T17:42:05.050Z,12.98
2022-12-15T17:44:37.323Z,12.98
2022-12-15T17:47:08.279Z,13.13
2022-12-15T17:49:37.722Z,8.85
2022-12-15T17:52:19.467Z,14.90
2022-12-15T17:54:46.767Z,16.45
2022-12-15T17:57:13.568Z,16.40
2022-12-15T17:59:40.355Z,13.85
2022-12-15T18:02:11.229Z,11.95
2022-12-15T18:04:37.993Z,16.20
2022-12-15T18:07:04.978Z,14.98
2022-12-15T18:09:31.577Z,16.48
2022-12-15T18:11:58.284Z,10.80
2022-12-15T18:14:24.954Z,15.30
2022-12-15T18:16:51.580Z,12.17
2022-12-15T18:19:18.388Z,11.07
2022-12-15T18:21:47.506Z,12.82
2022-12-15T18:24:17.309Z,10.77
2022-12-15T18:26:44.441Z,14.95
2022-12-15T18:29:18.230Z,12.50
2022-12-15T18:31:48.526Z,13.10
2022-12-15T18:34:21.343Z,16.23
2022-12-15T18:36:48.226Z,12.30
2022-12-15T18:39:20.436Z,13.32
2022-12-15T18:41:48.304Z,12.43
2022-12-15T18:44:22.951Z,13.13
2022-12-15T18:46:49.628Z,11.45
2022-12-15T18:49:18.075Z,12.43
2022-12-15T18:51:46.497Z,17.08
2022-12-15T18:54:24.402Z,17.30
2022-12-15T18:56:51.599Z,11.90
2022-12-15T18:59:18.940Z,10.38
2022-12-15T19:01:47.978Z,12.55
2022-12-15T19:04:15.335Z,14.70
2022-12-15T19:06:42.620Z,15.07
2022-12-15T19:09:17.472Z,9.43
2022-12-15T19:12:06.024Z,15.43
2022-12-15T19:14:41.641Z,14.88
2022-12-15T19:17:34.390Z,12.32
2022-12-15T19:20:19.966Z,14.10
2022-12-15T19:22:48.510Z,15.13
2022-12-15T19:25:26.491Z,15.68
2022-12-15T19:27:59.325Z,17.20
2022-12-15T19:30:29.048Z,15.13
2022-12-15T19:32:55.975Z,11.90
2022-12-15T19:35:22.976Z,11.20
2022-12-15T19:37:50.116Z,12.57
2022-12-15T19:40:22.262Z,14.80
2022-12-15T19:42:49.500Z,16.85
2022-12-15T19:45:18.458Z,14.83
2022-12-15T19:47:45.027Z,17.45
2022-12-15T19:50:20.421Z,16.70
2022-12-15T19:52:50.239Z,14.55
2022-12-15T19:55:18.395Z,13.20
2022-12-15T19:57:45.072Z,12.47
2022-12-15T20:00:24.850Z,13.38
2022-12-15T20:02:55.009Z,14.18
2022-12-15T20:05:24.176Z,14.25
2022-12-15T20:07:53.316Z,12.57
2022-12-15T20:10:31.307Z,16.90
2022-12-15T20:13:00.039Z,13.98
2022-12-15T20:15:26.772Z,15.85
2022-12-15T20:17:57.265Z,13.63
2022-12-15T20:20:26.098Z,11.75
2022-12-15T20:22:55.799Z,11.27
2022-12-15T20:25:31.416Z,12.68
2022-12-15T20:28:01.042Z,11.82
2022-12-15T20:30:35.325Z,14.10
2022-12-15T20:33:04.065Z,11.80
2022-12-15T20:35:33.323Z,12.37
2022-12-15T20:38:02.516Z,12.20
2022-12-15T20:40:30.927Z,13.57
2022-12-15T20:42:57.904Z,12.23
2022-12-15T20:45:26.790Z,15.32
2022-12-15T20:47:55.941Z,17.43
2022-12-15T20:50:24.643Z,14.40
2022-12-15T20:52:52.054Z,13.55
2022-12-15T20:55:19.490Z,19.38
2022-12-15T20:57:46.397Z,13.07
2022-12-15T21:00:13.502Z,9.60
2022-12-15T21:02:41.364Z,12.77
2022-12-15T21:05:11.834Z,12.82
2022-12-15T21:07:38.386Z,14.93
2022-12-15T21:10:05.199Z,16.05
2022-12-15T21:12:31.784Z,14.77
2022-12-15T21:14:58.417Z,11.93
2022-12-15T21:17:26.313Z,13.55
2022-12-15T21:19:53.101Z,13.40
2022-12-15T21:22:27.359Z,12.88
2022-12-15T21:24:56.752Z,16.30
2022-12-15T21:27:23.281Z,18.27
2022-12-15T21:29:52.584Z,13.80
2022-12-15T21:32:20.489Z,15.63
2022-12-15T21:34:47.097Z,17.23
2022-12-15T21:37:25.480Z,17.07
2022-12-15T21:39:52.416Z,13.23
2022-12-15T21:42:21.142Z,13.45
2022-12-15T21:44:48.416Z,14.40
2022-12-15T21:47:51.896Z,14.07
2022-12-15T21:50:19.474Z,22.37
2022-12-15T21:52:47.124Z,15.82
2022-12-15T21:55:23.427Z,17.30
2022-12-15T21:57:50.107Z,11.93
2022-12-15T22:00:19.656Z,14.38
2022-12-15T22:02:48.026Z,14.27
2022-12-15T22:05:22.171Z,14.48
2022-12-15T22:07:49.814Z,14.50
2022-12-15T22:10:17.616Z,17.10
2022-12-15T22:12:55.905Z,16.48
2022-12-15T22:15:26.265Z,18.37
2022-12-15T22:17:52.875Z,18.08
2022-12-15T22:20:22.110Z,18.58
2022-12-15T22:22:49.413Z,17.17
2022-12-15T22:25:21.845Z,16.15
2022-12-15T22:27:48.595Z,16.23
2022-12-15T22:30:20.741Z,17.92
2022-12-15T22:32:47.568Z,19.15
2022-12-15T22:35:19.807Z,16.17
2022-12-15T22:37:47.410Z,16.88
2022-12-15T22:40:14.977Z,17.37
2022-12-15T22:42:45.329Z,15.30
2022-12-15T22:45:17.952Z,17.38
2022-12-15T22:47:47.183Z,14.05
2022-12-15T22:50:21.196Z,14.90
2022-12-15T22:52:48.188Z,11.47
2022-12-15T22:55:19.286Z,14.80
2022-12-15T22:57:50.193Z,18.45
2022-12-15T23:00:17.542Z,16.45
2022-12-15T23:02:46.637Z,16.13
2022-12-15T23:05:16.921Z,14.03
2022-12-15T23:07:44.899Z,14.57
2022-12-15T23:10:32.980Z,15.20
2022-12-15T23:12:59.613Z,14.70
2022-12-15T23:15:51.437Z,14.73
2022-12-15T23:18:18.628Z,15.97
2022-12-15T23:20:45.599Z,16.38
2022-12-15T23:23:12.438Z,15.27
2022-12-15T23:25:39.057Z,17.92
2022-12-15T23:28:05.586Z,15.18
2022-12-15T23:30:32.732Z,15.57
2022-12-15T23:32:59.885Z,17.50
2022-12-15T23:35:26.616Z,17.42
2022-12-15T23:37:53.578Z,17.05
2022-12-15T23:40:22.434Z,17.52
2022-12-15T23:42:50.507Z,17.70
2022-12-15T23:45:18.185Z,18.92
2022-12-15T23:47:44.895Z,18.60
2022-12-15T23:50:11.714Z,20.25
2022-12-15T23:52:38.552Z,20.63
2022-12-15T23:55:08.037Z,18.67
2022-12-15T23:57:35.045Z,19.00
